createdAt,value
2022-10-07T00:00:54.929Z,100.00
2022-10-07T00:03:23.521Z,100.00
2022-10-07T00:06:21.197Z,100.00
2022-10-07T00:08:50.466Z,100.00
2022-10-07T00:11:21.532Z,100.00
2022-10-07T00:13:50.605Z,100.00
2022-10-07T00:16:21.200Z,100.00
2022-10-07T00:18:51.803Z,100.00
2022-10-07T00:21:19.986Z,100.00
2022-10-07T00:23:48.009Z,100.00
2022-10-07T00:26:18.833Z,100.00
2022-10-07T00:28:46.618Z,100.00
2022-10-07T00:31:16.790Z,100.00
2022-10-07T00:33:44.346Z,100.00
2022-10-07T00:36:16.362Z,100.00
2022-10-07T00:38:43.684Z,100.00
2022-10-07T00:41:18.815Z,100.00
2022-10-07T00:43:46.264Z,100.00
2022-10-07T00:46:29.454Z,100.00
2022-10-07T00:48:59.916Z,100.00
2022-10-07T00:51:27.179Z,100.00
2022-10-07T00:53:56.067Z,100.00
2022-10-07T00:56:25.988Z,100.00
2022-10-07T00:58:53.419Z,100.00
2022-10-07T01:01:21.311Z,100.00
2022-10-07T01:03:49.275Z,100.00
2022-10-07T01:06:17.894Z,100.00
2022-10-07T01:08:46.737Z,100.00
2022-10-07T01:11:28.741Z,100.00
2022-10-07T01:14:24.422Z,100.00
2022-10-07T01:16:57.270Z,100.00
2022-10-07T01:19:26.987Z,100.00
2022-10-07T01:22:05.125Z,100.00
2022-10-07T01:24:43.162Z,100.00
2022-10-07T01:27:18.692Z,100.00
2022-10-07T01:29:56.202Z,100.00
2022-10-07T01:32:32.657Z,100.00
2022-10-07T01:35:06.026Z,100.00
2022-10-07T01:37:41.062Z,100.00
2022-10-07T01:40:17.104Z,100.00
2022-10-07T01:42:46.034Z,100.00
2022-10-07T01:45:21.341Z,100.00
2022-10-07T01:47:49.441Z,100.00
2022-10-07T01:50:20.842Z,100.00
2022-10-07T01:52:50.581Z,100.00
2022-10-07T01:55:42.157Z,100.00
2022-10-07T01:58:33.357Z,100.00
2022-10-07T02:01:08.744Z,100.00
2022-10-07T02:03:54.787Z,100.00
2022-10-07T02:06:58.705Z,100.00
2022-10-07T02:09:41.046Z,100.00
2022-10-07T02:12:22.914Z,100.00
2022-10-07T02:14:59.358Z,100.00
2022-10-07T02:17:31.484Z,100.00
2022-10-07T02:20:01.666Z,100.00
2022-10-07T02:22:29.456Z,100.00
2022-10-07T02:25:00.334Z,100.00
2022-10-07T02:27:37.418Z,100.00
2022-10-07T02:30:15.254Z,100.00
2022-10-07T02:32:55.239Z,100.00
2022-10-07T02:35:51.274Z,100.00
2022-10-07T02:38:19.114Z,100.00
2022-10-07T02:41:14.930Z,100.00
2022-10-07T02:43:50.724Z,100.00
2022-10-07T02:46:29.924Z,100.00
2022-10-07T02:49:06.628Z,100.00
2022-10-07T02:51:39.827Z,100.00
2022-10-07T02:54:06.705Z,100.00
2022-10-07T02:56:38.420Z,100.00
2022-10-07T02:59:08.855Z,100.00
2022-10-07T03:01:42.257Z,100.00
2022-10-07T03:04:09.987Z,100.00
2022-10-07T03:06:37.525Z,100.00
2022-10-07T03:09:05.082Z,100.00
2022-10-07T03:11:32.407Z,100.00
2022-10-07T03:13:59.392Z,100.00
2022-10-07T03:16:26.472Z,100.00
2022-10-07T03:18:54.361Z,100.00
2022-10-07T03:21:26.369Z,100.00
2022-10-07T03:23:55.507Z,100.00
2022-10-07T03:26:26.504Z,100.00
2022-10-07T03:28:54.372Z,100.00
2022-10-07T03:31:21.747Z,100.00
2022-10-07T03:33:51.134Z,100.00
2022-10-07T03:36:19.952Z,100.00
2022-10-07T03:38:47.931Z,100.00
2022-10-07T03:41:15.990Z,100.00
2022-10-07T03:43:45.490Z,100.00
2022-10-07T03:46:17.501Z,100.00
2022-10-07T03:48:44.502Z,100.00
2022-10-07T03:51:11.517Z,100.00
2022-10-07T03:53:40.716Z,100.00
2022-10-07T03:56:08.470Z,100.00
2022-10-07T03:58:39.736Z,100.00
2022-10-07T04:01:17.575Z,100.00
2022-10-07T04:03:49.328Z,100.00
2022-10-07T04:06:16.683Z,100.00
2022-10-07T04:08:44.992Z,100.00
2022-10-07T04:11:13.133Z,100.00
2022-10-07T04:13:42.837Z,100.00
2022-10-07T04:16:10.950Z,100.00
2022-10-07T04:18:38.438Z,100.00
2022-10-07T04:21:06.074Z,100.00
2022-10-07T04:23:35.353Z,100.00
2022-10-07T04:26:06.799Z,100.00
2022-10-07T04:28:33.798Z,100.00
2022-10-07T04:31:10.029Z,100.00
2022-10-07T04:33:41.827Z,100.00
2022-10-07T04:36:12.265Z,100.00
2022-10-07T04:38:50.537Z,100.00
2022-10-07T04:41:21.175Z,100.00
2022-10-07T04:43:56.630Z,100.00
2022-10-07T04:46:25.746Z,100.00
2022-10-07T04:49:00.598Z,100.00
2022-10-07T04:51:30.061Z,100.00
2022-10-07T04:53:59.105Z,100.00
2022-10-07T04:56:32.112Z,100.00
2022-10-07T04:59:00.651Z,100.00
2022-10-07T05:01:28.446Z,100.00
2022-10-07T05:03:55.471Z,100.00
2022-10-07T05:06:22.294Z,100.00
2022-10-07T05:08:50.083Z,100.00
2022-10-07T05:11:16.994Z,100.00
2022-10-07T05:13:56.777Z,100.00
2022-10-07T05:16:24.950Z,100.00
2022-10-07T05:18:52.240Z,100.00
2022-10-07T05:21:19.554Z,100.00
2022-10-07T05:23:48.225Z,100.00
2022-10-07T05:26:21.797Z,100.00
2022-10-07T05:28:54.265Z,100.00
2022-10-07T05:31:28.352Z,100.00
2022-10-07T05:33:59.999Z,100.00
2022-10-07T05:36:27.409Z,100.00
2022-10-07T05:38:58.607Z,100.00
2022-10-07T05:41:36.093Z,100.00
2022-10-07T05:44:11.763Z,100.00
2022-10-07T05:46:40.416Z,100.00
2022-10-07T05:49:07.995Z,100.00
2022-10-07T05:51:36.026Z,100.00
2022-10-07T05:54:03.419Z,100.00
2022-10-07T05:56:38.107Z,100.00
2022-10-07T05:59:05.271Z,100.00
2022-10-07T06:01:32.611Z,100.00
2022-10-07T06:04:04.318Z,100.00
2022-10-07T06:06:35.539Z,100.00
2022-10-07T06:09:25.784Z,100.00
2022-10-07T06:12:12.107Z,98.72
2022-10-07T06:14:40.615Z,95.89
2022-10-07T06:17:08.306Z,94.11
2022-10-07T06:19:37.713Z,95.67
2022-10-07T06:22:04.776Z,93.46
2022-10-07T06:24:34.018Z,91.57
2022-10-07T06:27:02.819Z,91.02
2022-10-07T06:29:30.469Z,89.43
2022-10-07T06:31:57.714Z,88.90
2022-10-07T06:34:24.531Z,88.40
2022-10-07T06:36:51.384Z,87.35
2022-10-07T06:39:18.246Z,86.84
2022-10-07T06:41:47.585Z,87.53
2022-10-07T06:44:43.819Z,86.11
2022-10-07T06:47:14.956Z,85.06
2022-10-07T06:49:44.383Z,84.39
2022-10-07T06:52:12.447Z,82.74
2022-10-07T06:54:40.505Z,81.97
2022-10-07T06:57:20.726Z,81.61
2022-10-07T06:59:55.870Z,79.21
2022-10-07T07:02:25.736Z,78.75
2022-10-07T07:04:57.698Z,78.27
2022-10-07T07:07:26.056Z,76.76
2022-10-07T07:09:53.257Z,74.19
2022-10-07T07:12:22.857Z,73.95
2022-10-07T07:14:50.515Z,74.13
2022-10-07T07:17:20.189Z,71.71
2022-10-07T07:19:47.692Z,71.24
2022-10-07T07:22:14.599Z,71.59
2022-10-07T07:24:43.270Z,71.70
2022-10-07T07:27:10.176Z,70.53
2022-10-07T07:29:37.435Z,68.28
2022-10-07T07:32:04.623Z,67.68
2022-10-07T07:34:36.542Z,68.36
2022-10-07T07:37:04.404Z,67.66
2022-10-07T07:39:37.351Z,67.32
2022-10-07T07:42:09.133Z,67.15
2022-10-07T07:44:37.950Z,65.25
2022-10-07T07:47:09.075Z,65.66
2022-10-07T07:49:36.272Z,65.67
2022-10-07T07:52:04.484Z,64.33
2022-10-07T07:54:37.837Z,64.03
2022-10-07T07:57:04.756Z,64.14
2022-10-07T07:59:34.620Z,60.83
2022-10-07T08:02:02.772Z,59.75
2022-10-07T08:04:30.487Z,60.04
2022-10-07T08:06:57.607Z,58.17
2022-10-07T08:09:25.143Z,56.14
2022-10-07T08:11:52.933Z,55.22
2022-10-07T08:14:19.913Z,51.67
2022-10-07T08:16:50.453Z,51.73
2022-10-07T08:19:18.244Z,49.91
2022-10-07T08:21:45.768Z,49.42
2022-10-07T08:24:17.442Z,47.94
2022-10-07T08:26:47.623Z,47.75
2022-10-07T08:29:15.470Z,47.82
2022-10-07T08:31:42.811Z,46.52
2022-10-07T08:34:11.217Z,45.57
2022-10-07T08:36:38.687Z,44.17
2022-10-07T08:39:06.851Z,44.77
2022-10-07T08:41:58.068Z,44.88
2022-10-07T08:44:37.196Z,43.12
2022-10-07T08:47:24.802Z,42.81
2022-10-07T08:50:08.094Z,42.26
2022-10-07T08:52:45.131Z,42.92
2022-10-07T08:55:27.354Z,41.30
2022-10-07T08:58:09.044Z,40.95
2022-10-07T09:00:50.336Z,40.16
2022-10-07T09:03:47.365Z,40.07
2022-10-07T09:06:26.481Z,40.75
2022-10-07T09:09:02.440Z,40.57
2022-10-07T09:11:33.412Z,40.40
2022-10-07T09:14:19.133Z,40.22
2022-10-07T09:16:47.723Z,39.94
2022-10-07T09:19:27.346Z,40.63
2022-10-07T09:21:58.905Z,39.71
2022-10-07T09:24:31.517Z,39.32
2022-10-07T09:27:01.049Z,38.95
2022-10-07T09:29:30.147Z,39.32
2022-10-07T09:31:58.367Z,39.44
2022-10-07T09:34:30.074Z,39.00
2022-10-07T09:37:12.226Z,39.73
2022-10-07T09:39:40.187Z,39.77
2022-10-07T09:42:40.179Z,39.15
2022-10-07T09:45:21.647Z,38.24
2022-10-07T09:48:01.055Z,38.01
2022-10-07T09:50:41.161Z,37.65
2022-10-07T09:53:29.139Z,37.75
2022-10-07T09:55:56.536Z,37.10
2022-10-07T09:58:32.183Z,37.66
2022-10-07T10:01:02.047Z,37.70
2022-10-07T10:03:30.568Z,37.54
2022-10-07T10:05:58.732Z,37.59
2022-10-07T10:08:30.065Z,38.43
2022-10-07T10:11:19.962Z,37.59
2022-10-07T10:13:50.056Z,37.89
2022-10-07T10:16:34.808Z,37.78
2022-10-07T10:19:23.135Z,37.73
2022-10-07T10:21:56.368Z,37.54
2022-10-07T10:24:47.543Z,37.57
2022-10-07T10:27:23.212Z,37.34
2022-10-07T10:30:09.200Z,37.24
2022-10-07T10:33:19.626Z,37.61
2022-10-07T10:36:23.019Z,36.51
2022-10-07T10:39:24.426Z,35.02
2022-10-07T10:41:57.188Z,35.07
2022-10-07T10:44:34.079Z,35.27
2022-10-07T10:47:25.729Z,35.30
2022-10-07T10:50:02.975Z,34.99
2022-10-07T10:52:49.686Z,34.51
2022-10-07T10:55:44.489Z,34.47
2022-10-07T10:58:11.272Z,34.60
2022-10-07T11:00:51.025Z,33.90
2022-10-07T11:03:48.200Z,33.55
2022-10-07T11:06:18.194Z,33.89
2022-10-07T11:08:47.648Z,33.42
2022-10-07T11:11:20.001Z,32.75
2022-10-07T11:13:54.956Z,33.37
2022-10-07T11:16:28.036Z,33.14
2022-10-07T11:19:04.006Z,32.79
2022-10-07T11:21:38.325Z,32.20
2022-10-07T11:24:15.333Z,31.58
2022-10-07T11:26:46.962Z,32.47
2022-10-07T11:29:21.174Z,32.24
2022-10-07T11:31:56.394Z,32.36
2022-10-07T11:34:40.921Z,32.48
2022-10-07T11:37:19.713Z,32.06
2022-10-07T11:39:53.871Z,31.71
2022-10-07T11:42:26.629Z,31.82
2022-10-07T11:45:02.679Z,32.15
2022-10-07T11:47:46.632Z,31.69
2022-10-07T11:50:31.560Z,31.93
2022-10-07T11:53:07.198Z,32.21
2022-10-07T11:55:55.035Z,32.10
2022-10-07T11:58:36.186Z,32.45
2022-10-07T12:01:29.134Z,31.88
2022-10-07T12:04:01.714Z,32.43
2022-10-07T12:06:28.843Z,31.98
2022-10-07T12:08:55.716Z,31.05
2022-10-07T12:11:22.822Z,31.91
2022-10-07T12:13:52.276Z,30.50
2022-10-07T12:16:31.539Z,30.92
2022-10-07T12:19:07.599Z,30.78
2022-10-07T12:22:10.005Z,31.07
2022-10-07T12:24:37.959Z,30.86
2022-10-07T12:27:16.232Z,30.71
2022-10-07T12:30:02.769Z,30.97
2022-10-07T12:32:56.448Z,30.30
2022-10-07T12:35:34.767Z,30.23
2022-10-07T12:38:19.023Z,30.10
2022-10-07T12:41:02.464Z,30.54
2022-10-07T12:43:38.047Z,30.28
2022-10-07T12:46:15.322Z,30.28
2022-10-07T12:48:50.651Z,31.25
2022-10-07T12:51:25.272Z,30.75
2022-10-07T12:53:53.524Z,30.48
2022-10-07T12:56:28.062Z,30.92
2022-10-07T12:59:44.321Z,30.67
2022-10-07T13:02:34.944Z,30.31
2022-10-07T13:05:13.549Z,29.84
2022-10-07T13:08:10.524Z,29.83
2022-10-07T13:11:19.918Z,30.35
2022-10-07T13:14:02.639Z,30.15
2022-10-07T13:16:38.677Z,30.11
2022-10-07T13:19:20.478Z,30.50
2022-10-07T13:21:51.823Z,29.88
2022-10-07T13:24:24.944Z,30.48
2022-10-07T13:26:52.378Z,29.90
2022-10-07T13:29:25.951Z,29.41
2022-10-07T13:32:15.774Z,30.45
2022-10-07T13:34:45.577Z,29.67
2022-10-07T13:37:35.518Z,29.75
2022-10-07T13:40:34.172Z,29.37
2022-10-07T13:43:04.676Z,29.99
2022-10-07T13:45:33.413Z,29.97
2022-10-07T13:48:00.508Z,28.60
2022-10-07T13:50:30.790Z,29.55
2022-10-07T13:52:58.614Z,29.66
2022-10-07T13:55:30.369Z,29.99
2022-10-07T13:58:00.840Z,29.31
2022-10-07T14:00:33.419Z,29.78
2022-10-07T14:03:02.048Z,30.16
2022-10-07T14:05:32.407Z,29.38
2022-10-07T14:08:12.812Z,29.08
2022-10-07T14:10:56.043Z,29.47
2022-10-07T14:13:23.183Z,29.24
2022-10-07T14:15:54.431Z,28.78
2022-10-07T14:18:22.027Z,28.86
2022-10-07T14:20:55.057Z,28.85
2022-10-07T14:23:30.674Z,28.67
2022-10-07T14:28:47.889Z,30.74
2022-10-07T14:31:38.548Z,31.89
2022-10-07T14:34:38.874Z,32.14
2022-10-07T14:37:29.589Z,33.25
2022-10-07T14:39:59.876Z,33.41
2022-10-07T14:42:32.412Z,34.33
2022-10-07T14:45:02.912Z,34.05
2022-10-07T14:47:37.022Z,33.80
2022-10-07T14:50:04.148Z,34.32
2022-10-07T14:52:35.481Z,33.96
2022-10-07T14:55:05.654Z,34.05
2022-10-07T14:57:32.479Z,34.03
2022-10-07T14:59:59.287Z,34.52
2022-10-07T15:02:26.637Z,35.00
2022-10-07T15:04:53.621Z,35.20
2022-10-07T15:07:21.557Z,34.08
2022-10-07T15:09:48.566Z,35.02
2022-10-07T15:12:17.255Z,35.55
2022-10-07T15:14:44.121Z,35.74
2022-10-07T15:17:14.388Z,36.46
2022-10-07T15:19:41.433Z,36.41
2022-10-07T15:22:08.361Z,37.17
2022-10-07T15:24:35.184Z,37.39
2022-10-07T15:27:02.632Z,37.69
2022-10-07T15:29:29.407Z,38.07
2022-10-07T15:31:56.238Z,38.66
2022-10-07T15:34:23.499Z,38.79
2022-10-07T15:36:50.548Z,39.35
2022-10-07T15:39:17.410Z,40.07
2022-10-07T15:41:44.435Z,39.86
2022-10-07T15:44:18.563Z,40.20
2022-10-07T15:46:47.721Z,40.02
2022-10-07T15:49:17.389Z,40.27
2022-10-07T15:51:46.871Z,40.83
2022-10-07T15:54:14.117Z,41.17
2022-10-07T15:56:42.285Z,41.61
2022-10-07T15:59:09.719Z,41.51
2022-10-07T16:01:36.937Z,41.93
2022-10-07T16:04:05.534Z,42.32
2022-10-07T16:06:35.412Z,42.62
2022-10-07T16:09:03.446Z,42.81
2022-10-07T16:11:33.200Z,43.44
2022-10-07T16:14:03.266Z,43.36
2022-10-07T16:16:33.955Z,43.61
2022-10-07T16:19:01.274Z,43.71
2022-10-07T16:21:31.485Z,44.08
2022-10-07T16:24:02.089Z,44.10
2022-10-07T16:26:30.403Z,44.18
2022-10-07T16:29:18.261Z,45.45
2022-10-07T16:31:46.720Z,44.89
2022-10-07T16:34:15.934Z,45.26
2022-10-07T16:36:46.091Z,46.68
2022-10-07T16:39:13.575Z,47.22
2022-10-07T16:41:44.411Z,46.00
2022-10-07T16:44:11.576Z,46.74
2022-10-07T16:46:38.930Z,48.79
2022-10-07T16:49:08.607Z,49.39
2022-10-07T16:51:36.833Z,49.70
2022-10-07T16:54:06.765Z,48.91
2022-10-07T16:56:36.195Z,49.46
2022-10-07T16:59:05.945Z,50.41
2022-10-07T17:01:33.710Z,50.45
2022-10-07T17:04:01.499Z,51.97
2022-10-07T17:06:30.704Z,51.75
2022-10-07T17:09:04.548Z,52.45
2022-10-07T17:11:47.528Z,52.09
2022-10-07T17:14:17.771Z,53.46
2022-10-07T17:16:47.022Z,52.99
2022-10-07T17:19:15.465Z,54.42
2022-10-07T17:21:42.490Z,55.91
2022-10-07T17:24:10.243Z,55.60
2022-10-07T17:26:38.136Z,56.56
2022-10-07T17:29:08.320Z,57.43
2022-10-07T17:31:37.122Z,57.36
2022-10-07T17:34:04.571Z,58.26
2022-10-07T17:36:32.836Z,59.51
2022-10-07T17:39:00.308Z,60.02
2022-10-07T17:41:29.961Z,60.45
2022-10-07T17:43:59.345Z,60.63
2022-10-07T17:46:28.771Z,61.68
2022-10-07T17:48:57.871Z,61.79
2022-10-07T17:51:28.289Z,62.23
2022-10-07T17:53:56.489Z,63.52
2022-10-07T17:56:23.822Z,63.18
2022-10-07T17:58:50.730Z,64.30
2022-10-07T18:01:22.793Z,64.75
2022-10-07T18:03:56.410Z,65.40
2022-10-07T18:06:24.855Z,65.65
2022-10-07T18:08:52.086Z,66.21
2022-10-07T18:11:19.103Z,66.57
2022-10-07T18:14:04.455Z,66.39
2022-10-07T18:16:33.146Z,66.89
2022-10-07T18:19:00.430Z,67.20
2022-10-07T18:21:31.232Z,67.71
2022-10-07T18:23:58.979Z,68.11
2022-10-07T18:26:25.910Z,68.44
2022-10-07T18:28:52.807Z,68.90
2022-10-07T18:31:20.228Z,69.39
2022-10-07T18:33:47.564Z,69.22
2022-10-07T18:36:17.808Z,69.35
2022-10-07T18:38:45.310Z,69.48
2022-10-07T18:41:14.771Z,69.86
2022-10-07T18:43:43.587Z,70.08
2022-10-07T18:46:13.623Z,70.76
2022-10-07T18:48:42.227Z,70.93
2022-10-07T18:51:11.558Z,71.67
2022-10-07T18:53:41.923Z,72.11
2022-10-07T18:56:12.475Z,72.06
2022-10-07T18:58:42.322Z,73.19
2022-10-07T19:01:17.996Z,73.42
2022-10-07T19:03:45.656Z,73.21
2022-10-07T19:06:20.978Z,73.36
2022-10-07T19:08:48.126Z,73.12
2022-10-07T19:11:18.206Z,72.94
2022-10-07T19:13:48.423Z,73.06
2022-10-07T19:16:26.555Z,74.84
2022-10-07T19:18:56.022Z,74.36
2022-10-07T19:21:23.866Z,74.38
2022-10-07T19:23:54.771Z,75.07
2022-10-07T19:26:26.618Z,75.00
2022-10-07T19:28:54.852Z,75.05
2022-10-07T19:31:29.300Z,75.57
2022-10-07T19:34:04.277Z,76.40
2022-10-07T19:36:34.706Z,76.76
2022-10-07T19:39:02.749Z,76.46
2022-10-07T19:41:33.124Z,77.17
2022-10-07T19:44:01.098Z,77.71
2022-10-07T19:46:31.015Z,77.55
2022-10-07T19:49:00.291Z,77.69
2022-10-07T19:51:30.414Z,78.35
2022-10-07T19:53:59.128Z,78.92
2022-10-07T19:56:35.780Z,79.07
2022-10-07T19:59:07.982Z,79.70
2022-10-07T20:01:41.830Z,80.23
2022-10-07T20:04:15.970Z,80.65
2022-10-07T20:06:43.904Z,80.52
2022-10-07T20:09:13.599Z,80.70
2022-10-07T20:11:40.553Z,81.19
2022-10-07T20:14:07.814Z,82.57
2022-10-07T20:16:35.094Z,81.39
2022-10-07T20:19:09.494Z,81.58
2022-10-07T20:21:38.126Z,81.77
2022-10-07T20:24:06.866Z,81.38
2022-10-07T20:26:36.483Z,81.55
2022-10-07T20:29:05.931Z,81.70
2022-10-07T20:31:35.450Z,81.83
2022-10-07T20:34:03.730Z,82.06
2022-10-07T20:36:33.892Z,81.86
2022-10-07T20:39:20.359Z,81.83
2022-10-07T20:42:09.716Z,81.71
2022-10-07T20:44:37.087Z,81.58
2022-10-07T20:47:06.451Z,81.93
2022-10-07T20:49:34.041Z,81.98
2022-10-07T20:52:03.317Z,82.36
2022-10-07T20:54:30.884Z,82.48
2022-10-07T20:56:58.812Z,83.03
2022-10-07T20:59:30.582Z,83.38
2022-10-07T21:01:58.321Z,83.52
2022-10-07T21:04:27.368Z,83.10
2022-10-07T21:06:58.130Z,83.46
2022-10-07T21:09:26.219Z,84.32
2022-10-07T21:11:54.860Z,84.25
2022-10-07T21:14:22.715Z,83.71
2022-10-07T21:16:49.903Z,83.38
2022-10-07T21:19:18.370Z,83.89
2022-10-07T21:21:45.152Z,83.86
2022-10-07T21:24:12.094Z,83.70
2022-10-07T21:26:39.024Z,84.69
2022-10-07T21:29:08.365Z,84.89
2022-10-07T21:31:37.023Z,85.01
2022-10-07T21:34:07.949Z,84.94
2022-10-07T21:36:37.851Z,85.05
2022-10-07T21:39:05.928Z,85.16
2022-10-07T21:41:34.699Z,85.43
2022-10-07T21:44:04.148Z,85.63
2022-10-07T21:46:33.776Z,85.75
2022-10-07T21:49:00.911Z,85.60
2022-10-07T21:51:29.740Z,85.86
2022-10-07T21:54:02.465Z,86.34
2022-10-07T21:56:32.708Z,87.01
2022-10-07T21:59:05.747Z,87.65
2022-10-07T22:01:32.968Z,87.37
2022-10-07T22:04:02.285Z,87.19
2022-10-07T22:06:48.476Z,87.26
2022-10-07T22:09:18.521Z,86.98
2022-10-07T22:11:45.549Z,87.05
2022-10-07T22:14:13.215Z,86.87
2022-10-07T22:16:40.610Z,86.62
2022-10-07T22:19:08.111Z,86.61
2022-10-07T22:21:39.339Z,86.54
2022-10-07T22:24:11.048Z,86.94
2022-10-07T22:26:40.903Z,87.09
2022-10-07T22:29:13.235Z,87.02
2022-10-07T22:31:40.140Z,87.85
2022-10-07T22:34:07.529Z,87.37
2022-10-07T22:36:35.472Z,87.93
2022-10-07T22:39:02.398Z,88.26
2022-10-07T22:41:29.650Z,89.69
2022-10-07T22:43:56.771Z,89.98
2022-10-07T22:46:26.894Z,89.94
2022-10-07T22:48:58.428Z,89.89
2022-10-07T22:51:28.693Z,90.73
2022-10-07T22:53:56.863Z,90.67
2022-10-07T22:56:27.701Z,91.38
2022-10-07T22:59:03.054Z,91.50
2022-10-07T23:01:31.650Z,91.22
2022-10-07T23:04:01.027Z,91.22
2022-10-07T23:06:28.087Z,91.06
2022-10-07T23:08:56.222Z,91.16
2022-10-07T23:11:25.086Z,91.13
2022-10-07T23:13:52.615Z,91.37
2022-10-07T23:16:22.280Z,91.34
2022-10-07T23:18:52.793Z,91.70
2022-10-07T23:21:25.716Z,92.85
2022-10-07T23:24:01.846Z,93.31
2022-10-07T23:26:31.848Z,93.15
2022-10-07T23:29:00.385Z,93.03
2022-10-07T23:31:29.372Z,92.86
2022-10-07T23:33:57.326Z,93.56
2022-10-07T23:36:25.557Z,92.59
2022-10-07T23:38:53.132Z,92.79
2022-10-07T23:41:22.655Z,94.04
2022-10-07T23:43:50.720Z,93.99
2022-10-07T23:46:19.470Z,93.80
2022-10-07T23:48:47.208Z,94.32
2022-10-07T23:51:17.111Z,94.64
2022-10-07T23:53:44.730Z,95.92
2022-10-07T23:56:11.969Z,94.97
2022-10-07T23:58:39.280Z,95.02
